Time;durP1;ratioP1;P1;durP2;ratioP2;P2;SDS_P1;SDS_P2;PMS_P1;PMS_P2;Temp;Humidity;BMP_temperature;BMP_pressure;BME280_temperature;BME280_humidity;BME280_pressure;Samples;Min_cycle;Max_cycle;Signal;HPM_P1;HPM_P2
2021/03/17 00:00:33;;;;;;;55.97;22.33;;;4.20;85.10;;;;;;5041562;28;20435;-67
2021/03/17 00:02:59;;;;;;;54.95;22.20;;;4.20;85.20;;;;;;5052185;28;20028;-67
2021/03/17 00:05:33;;;;;;;59.72;23.52;;;4.20;85.10;;;;;;5053743;28;20029;-67
2021/03/17 00:07:58;;;;;;;70.80;23.48;;;4.20;85.30;;;;;;5053829;28;20025;-67
2021/03/17 00:10:27;;;;;;;70.63;24.77;;;4.20;85.00;;;;;;5052940;28;20032;-67
2021/03/17 00:12:54;;;;;;;67.95;23.50;;;4.20;85.10;;;;;;5053131;28;20391;-72
2021/03/17 00:15:22;;;;;;;56.33;21.15;;;4.20;85.20;;;;;;5052939;28;20951;-67
2021/03/17 00:17:47;;;;;;;53.17;21.58;;;4.20;85.20;;;;;;5053759;28;20032;-66
2021/03/17 00:20:13;;;;;;;69.78;22.55;;;4.30;85.20;;;;;;5054475;28;20032;-67
2021/03/17 00:22:39;;;;;;;73.43;25.10;;;4.30;85.30;;;;;;5053032;28;20114;-67
2021/03/17 00:25:05;;;;;;;71.47;22.83;;;4.30;85.30;;;;;;5040373;28;20041;-67
2021/03/17 00:27:31;;;;;;;76.57;22.42;;;4.30;85.30;;;;;;5052893;28;20036;-67
2021/03/17 00:29:57;;;;;;;67.72;23.20;;;4.30;85.30;;;;;;5053777;28;20041;-67
2021/03/17 00:32:23;;;;;;;69.57;22.23;;;4.30;85.80;;;;;;5054156;28;20033;-67
2021/03/17 00:34:48;;;;;;;70.65;24.90;;;4.30;85.00;;;;;;5054262;28;20479;-66
2021/03/17 00:37:14;;;;;;;80.97;24.35;;;4.30;85.00;;;;;;5052307;28;20112;-67
2021/03/17 00:39:40;;;;;;;73.85;24.05;;;4.30;85.00;;;;;;5053048;28;20457;-66
2021/03/17 00:42:05;;;;;;;66.88;23.98;;;4.30;85.10;;;;;;5052158;28;20037;-67
2021/03/17 00:44:31;;;;;;;68.80;24.65;;;4.30;85.00;;;;;;5054147;28;20479;-67
2021/03/17 00:46:57;;;;;;;58.58;21.00;;;4.30;85.00;;;;;;5052717;28;20036;-67
2021/03/17 00:49:23;;;;;;;52.83;21.30;;;4.30;85.00;;;;;;5053544;28;20037;-67
2021/03/17 00:51:48;;;;;;;50.20;19.75;;;4.30;85.00;;;;;;5052544;28;20025;-67
2021/03/17 00:54:14;;;;;;;48.83;20.73;;;4.30;84.90;;;;;;5052291;28;20029;-67
2021/03/17 00:56:40;;;;;;;39.92;19.30;;;4.30;85.00;;;;;;5052482;28;20028;-67
2021/03/17 00:59:06;;;;;;;49.38;18.60;;;4.30;85.10;;;;;;5053080;28;20082;-68
2021/03/17 01:01:31;;;;;;;45.20;18.65;;;4.30;85.10;;;;;;5053932;28;20064;-67
2021/03/17 01:03:57;;;;;;;32.65;17.30;;;4.30;84.90;;;;;;5041968;28;20025;-67
2021/03/17 01:06:23;;;;;;;43.38;18.55;;;4.20;84.90;;;;;;5034337;28;20530;-68
2021/03/17 01:08:49;;;;;;;31.15;15.77;;;4.30;85.10;;;;;;5048824;28;20063;-67
2021/03/17 01:11:15;;;;;;;38.17;19.50;;;4.20;85.00;;;;;;5050884;28;20122;-68
2021/03/17 01:13:41;;;;;;;36.05;18.92;;;4.20;85.00;;;;;;5049940;28;20021;-67
2021/03/17 01:16:07;;;;;;;36.25;18.35;;;4.20;85.10;;;;;;5053802;28;20140;-67
2021/03/17 01:18:33;;;;;;;44.78;19.67;;;4.20;85.20;;;;;;5053259;28;20060;-67
2021/03/17 01:20:58;;;;;;;43.20;18.45;;;4.20;85.30;;;;;;5051234;28;20029;-67
2021/03/17 01:23:24;;;;;;;41.42;18.48;;;4.30;85.40;;;;;;5051919;28;20035;-68
2021/03/17 01:25:50;;;;;;;44.65;21.15;;;4.30;85.30;;;;;;5050031;28;20154;-67
2021/03/17 01:28:16;;;;;;;44.40;18.58;;;4.30;85.50;;;;;;5044224;28;20129;-67
2021/03/17 01:30:51;;;;;;;30.27;16.35;;;4.30;85.40;;;;;;5051541;28;20438;-67
2021/03/17 01:33:18;;;;;;;37.75;19.73;;;4.30;85.30;;;;;;5052180;28;20025;-66
2021/03/17 01:35:46;;;;;;;34.85;17.02;;;4.30;85.40;;;;;;5051313;28;20033;-66
2021/03/17 01:38:12;;;;;;;35.30;18.63;;;4.30;85.50;;;;;;5046102;28;20029;-66
2021/03/17 01:40:41;;;;;;;36.30;18.42;;;4.30;85.50;;;;;;5048894;28;20082;-68
2021/03/17 01:43:07;;;;;;;35.85;18.45;;;4.30;85.50;;;;;;5050853;28;20511;-67
2021/03/17 01:45:35;;;;;;;45.67;19.80;;;4.30;85.40;;;;;;5052636;28;20068;-66
2021/03/17 01:48:01;;;;;;;34.80;17.60;;;4.30;85.50;;;;;;5051455;28;20044;-66
2021/03/17 01:50:29;;;;;;;35.03;18.83;;;4.30;85.50;;;;;;5052819;28;20072;-66
2021/03/17 01:52:56;;;;;;;36.55;18.83;;;4.30;85.50;;;;;;5051233;28;20062;-66
2021/03/17 01:55:22;;;;;;;39.97;18.65;;;4.30;85.60;;;;;;5051241;28;20028;-66
2021/03/17 01:57:48;;;;;;;44.42;21.95;;;4.30;85.60;;;;;;5040429;28;20025;-67
2021/03/17 02:00:17;;;;;;;52.92;23.27;;;4.30;85.70;;;;;;5050773;28;20032;-66
2021/03/17 02:02:52;;;;;;;56.20;25.60;;;4.30;85.70;;;;;;5051086;28;20387;-66
2021/03/17 02:05:42;;;;;;;55.08;23.35;;;4.30;85.60;;;;;;5052367;28;20095;-67
2021/03/17 02:08:11;;;;;;;58.83;23.65;;;4.30;85.70;;;;;;5043843;28;20041;-66
2021/03/17 02:10:37;;;;;;;49.53;24.05;;;4.30;85.70;;;;;;5051154;28;20399;-66
2021/03/17 02:13:25;;;;;;;50.70;22.02;;;4.30;85.80;;;;;;5050625;28;20051;-66
2021/03/17 02:16:18;;;;;;;54.72;23.25;;;4.20;85.80;;;;;;5051213;28;20475;-66
2021/03/17 02:18:53;;;;;;;65.35;26.27;;;4.20;85.80;;;;;;5049238;28;20021;-66
2021/03/17 02:22:00;;;;;;;62.58;25.42;;;4.20;86.00;;;;;;5051224;28;20067;-66
2021/03/17 02:24:27;;;;;;;;;;;4.20;86.00;;;;;;5045323;28;20044;-67
2021/03/17 02:27:15;;;;;;;44.20;20.45;;;4.20;85.80;;;;;;5046807;28;20366;-67
2021/03/17 02:30:06;;;;;;;44.90;20.85;;;4.20;86.00;;;;;;5051089;28;20033;-67
2021/03/17 02:33:09;;;;;;;38.65;19.65;;;4.20;86.10;;;;;;5040224;28;20033;-67
2021/03/17 02:35:37;;;;;;;42.45;21.33;;;4.20;86.40;;;;;;5050983;28;20037;-67
2021/03/17 02:38:08;;;;;;;43.88;21.75;;;4.20;86.30;;;;;;5044795;28;20528;-67
2021/03/17 02:40:38;;;;;;;48.55;21.58;;;4.20;86.30;;;;;;5050398;28;20021;-67
2021/03/17 02:43:09;;;;;;;53.30;23.73;;;4.30;86.50;;;;;;5050586;28;20036;-67
2021/03/17 02:45:37;;;;;;;49.30;21.63;;;4.30;86.40;;;;;;5051033;28;20131;-67
2021/03/17 02:48:14;;;;;;;50.20;22.58;;;4.30;86.40;;;;;;5042831;28;20033;-67
2021/03/17 02:50:47;;;;;;;54.78;25.10;;;4.30;86.30;;;;;;5051872;28;20036;-67
2021/03/17 02:53:15;;;;;;;46.40;21.50;;;4.30;86.30;;;;;;5047542;28;20090;-67
2021/03/17 02:55:47;;;;;;;52.25;22.67;;;4.30;86.30;;;;;;5045711;28;20463;-67
2021/03/17 02:58:14;;;;;;;40.53;21.15;;;4.30;86.40;;;;;;5051064;28;20025;-67
2021/03/17 03:00:40;;;;;;;40.63;20.10;;;4.30;86.50;;;;;;5051858;28;20099;-67
2021/03/17 03:03:08;;;;;;;38.03;18.33;;;4.30;86.50;;;;;;5051601;28;20444;-67
2021/03/17 03:05:34;;;;;;;41.65;20.42;;;4.30;86.40;;;;;;5044669;28;20030;-67
2021/03/17 03:08:00;;;;;;;51.03;21.63;;;4.30;86.40;;;;;;5052027;28;20096;-67
2021/03/17 03:10:29;;;;;;;43.92;19.55;;;4.40;86.50;;;;;;5050717;28;20116;-67
2021/03/17 03:12:56;;;;;;;39.47;18.75;;;4.40;86.50;;;;;;5051689;28;20029;-67
2021/03/17 03:15:25;;;;;;;34.88;17.38;;;4.40;87.10;;;;;;5045121;28;20033;-67
2021/03/17 03:17:51;;;;;;;35.22;17.70;;;4.40;86.40;;;;;;5055640;28;20032;-67
2021/03/17 03:20:19;;;;;;;35.25;19.63;;;4.30;86.40;;;;;;5054349;28;20029;-67
2021/03/17 03:22:46;;;;;;;45.63;20.40;;;4.30;86.50;;;;;;5044752;28;20113;-68
2021/03/17 03:25:14;;;;;;;38.65;18.13;;;4.30;86.40;;;;;;5055367;28;20095;-66
2021/03/17 03:27:40;;;;;;;35.05;17.58;;;4.30;86.50;;;;;;5055768;28;20033;-66
2021/03/17 03:30:12;;;;;;;39.63;19.52;;;4.30;86.50;;;;;;5039135;28;20534;-68
2021/03/17 03:32:38;;;;;;;41.60;18.20;;;4.30;86.80;;;;;;5036608;28;20383;-67
2021/03/17 03:35:06;;;;;;;40.33;17.52;;;4.40;86.80;;;;;;5039468;28;20028;-67
2021/03/17 03:37:32;;;;;;;38.50;17.77;;;4.40;86.70;;;;;;5040027;28;20084;-70
2021/03/17 03:39:58;;;;;;;34.83;16.42;;;4.40;86.60;;;;;;5042773;28;20384;-65
2021/03/17 03:42:23;;;;;;;37.53;16.92;;;4.40;86.70;;;;;;5041826;28;20041;-66
2021/03/17 03:44:49;;;;;;;29.85;15.98;;;4.40;86.80;;;;;;5041170;28;20383;-66
2021/03/17 03:47:15;;;;;;;35.40;17.48;;;4.40;86.80;;;;;;5040963;28;20036;-66
2021/03/17 03:49:41;;;;;;;42.80;17.88;;;4.40;86.80;;;;;;5046672;28;20033;-67
2021/03/17 03:52:13;;;;;;;37.88;18.15;;;4.40;86.80;;;;;;5049455;28;20480;-66
2021/03/17 03:54:47;;;;;;;34.38;16.95;;;4.50;86.80;;;;;;5034812;28;20433;-66
2021/03/17 03:57:27;;;;;;;40.28;18.23;;;4.40;86.70;;;;;;5051681;28;20035;-66
2021/03/17 03:59:59;;;;;;;40.35;19.00;;;4.40;86.80;;;;;;5042482;28;20365;-66
2021/03/17 04:02:26;;;;;;;42.08;20.13;;;4.40;86.60;;;;;;5049188;28;20483;-66
2021/03/17 04:04:55;;;;;;;38.70;18.58;;;4.40;86.50;;;;;;5046040;28;20056;-70
2021/03/17 04:07:22;;;;;;;34.20;15.15;;;4.40;86.80;;;;;;5049661;28;20052;-66
2021/03/17 04:09:50;;;;;;;32.75;17.85;;;4.40;86.80;;;;;;5046757;28;20025;-66
2021/03/17 04:12:18;;;;;;;34.25;16.88;;;4.40;86.80;;;;;;5036662;28;20028;-65
2021/03/17 04:14:48;;;;;;;35.83;18.80;;;4.40;86.90;;;;;;5037622;28;20068;-66
2021/03/17 04:17:25;;;;;;;40.55;18.45;;;4.40;86.90;;;;;;5034875;28;20456;-66
2021/03/17 04:19:55;;;;;;;37.53;17.58;;;4.40;86.90;;;;;;5038217;28;20128;-67
2021/03/17 04:22:22;;;;;;;33.40;17.10;;;4.40;87.00;;;;;;5037250;28;20024;-66
2021/03/17 04:24:50;;;;;;;35.88;17.42;;;4.40;87.10;;;;;;5036725;28;20032;-66
2021/03/17 04:27:17;;;;;;;42.45;18.35;;;4.40;87.10;;;;;;5034718;28;20021;-67
2021/03/17 04:29:45;;;;;;;40.80;18.70;;;4.40;87.20;;;;;;5037131;28;20040;-68
2021/03/17 04:32:12;;;;;;;36.58;15.70;;;4.40;87.20;;;;;;5033715;28;20041;-67
2021/03/17 04:34:38;;;;;;;34.58;15.32;;;4.40;87.20;;;;;;5046873;28;20020;-69
2021/03/17 04:37:04;;;;;;;34.22;15.35;;;4.40;87.20;;;;;;5039893;28;20057;-68
2021/03/17 04:39:31;;;;;;;33.65;16.38;;;4.40;87.20;;;;;;5042101;28;20386;-67
2021/03/17 04:41:58;;;;;;;34.88;16.48;;;4.40;87.30;;;;;;5036594;28;20022;-67
2021/03/17 04:44:24;;;;;;;34.47;15.85;;;4.40;87.50;;;;;;5038945;28;20041;-66
2021/03/17 04:46:50;;;;;;;32.53;14.52;;;4.40;87.50;;;;;;5042477;28;20029;-70
2021/03/17 04:49:19;;;;;;;31.17;14.30;;;4.40;87.40;;;;;;5038831;28;20100;-67
2021/03/17 04:51:47;;;;;;;30.77;14.63;;;4.40;87.50;;;;;;5038869;28;20072;-66
2021/03/17 04:54:13;;;;;;;32.45;15.18;;;4.40;87.60;;;;;;5048535;28;20045;-66
2021/03/17 04:56:42;;;;;;;44.58;16.10;;;4.30;87.50;;;;;;5048905;28;20056;-67
2021/03/17 04:59:11;;;;;;;35.78;16.40;;;4.30;87.80;;;;;;5042285;28;20025;-67
2021/03/17 05:01:42;;;;;;;39.03;16.13;;;4.30;87.70;;;;;;5043140;28;20494;-67
2021/03/17 05:04:10;;;;;;;39.80;15.73;;;4.30;87.70;;;;;;5049762;28;20021;-67
2021/03/17 05:06:37;;;;;;;35.03;15.82;;;4.30;87.80;;;;;;5047676;28;20445;-67
2021/03/17 05:09:05;;;;;;;29.48;14.82;;;4.30;88.10;;;;;;5052746;28;20025;-67
2021/03/17 05:11:32;;;;;;;34.88;14.73;;;4.40;88.40;;;;;;5052010;28;20029;-67
2021/03/17 05:13:59;;;;;;;39.05;15.45;;;4.40;88.10;;;;;;5045339;28;20034;-67
2021/03/17 05:16:26;;;;;;;33.63;15.43;;;4.40;88.10;;;;;;5050878;28;20040;-66
2021/03/17 05:18:52;;;;;;;35.08;16.10;;;4.40;88.20;;;;;;5053110;28;20025;-71
2021/03/17 05:21:19;;;;;;;37.88;16.80;;;4.40;88.20;;;;;;5049704;28;20112;-66
2021/03/17 05:23:45;;;;;;;39.33;17.30;;;4.30;88.10;;;;;;5045015;28;20060;-67
2021/03/17 05:26:11;;;;;;;36.90;16.58;;;4.40;88.20;;;;;;5033251;28;20071;-65
2021/03/17 05:28:40;;;;;;;41.80;17.25;;;4.40;88.30;;;;;;5045860;28;20116;-65
2021/03/17 05:31:07;;;;;;;54.95;21.48;;;4.40;88.20;;;;;;5036352;28;20065;-66
2021/03/17 05:33:34;;;;;;;47.33;20.83;;;4.30;88.10;;;;;;5036301;28;20033;-66
2021/03/17 05:35:59;;;;;;;34.38;16.35;;;4.40;88.40;;;;;;5034949;28;20025;-65
2021/03/17 05:38:25;;;;;;;41.05;17.42;;;4.30;88.40;;;;;;5035565;28;20071;-65
2021/03/17 05:40:54;;;;;;;52.58;22.23;;;4.30;88.40;;;;;;5033767;28;20391;-66
2021/03/17 05:43:21;;;;;;;66.28;27.50;;;4.30;88.80;;;;;;5039019;28;20032;-65
2021/03/17 05:45:48;;;;;;;69.07;27.52;;;4.30;89.20;;;;;;5045708;28;20082;-65
2021/03/17 05:48:16;;;;;;;57.72;25.52;;;4.30;89.30;;;;;;5052900;28;20035;-66
2021/03/17 05:50:43;;;;;;;45.35;20.50;;;4.30;89.40;;;;;;5037795;28;20029;-66
2021/03/17 05:53:09;;;;;;;40.78;19.85;;;4.30;89.60;;;;;;5039568;28;20029;-66
2021/03/17 05:55:38;;;;;;;43.58;20.80;;;4.30;89.80;;;;;;5045336;28;20029;-71
2021/03/17 05:58:04;;;;;;;47.78;21.65;;;4.40;89.90;;;;;;5040160;28;20029;-66
2021/03/17 06:00:30;;;;;;;51.80;22.88;;;4.40;89.80;;;;;;5041051;28;20330;-66
2021/03/17 06:02:58;;;;;;;60.78;23.63;;;4.30;89.80;;;;;;5042163;28;20026;-66
2021/03/17 06:05:24;;;;;;;55.38;22.23;;;4.30;90.00;;;;;;5035598;28;20030;-68
2021/03/17 06:08:11;;;;;;;62.40;24.88;;;4.30;90.00;;;;;;5043787;28;20025;-67
2021/03/17 06:10:37;;;;;;;54.97;23.35;;;4.30;90.00;;;;;;5054400;28;20128;-67
2021/03/17 06:13:09;;;;;;;59.58;23.92;;;4.30;90.00;;;;;;5037414;28;20128;-70
2021/03/17 06:15:37;;;;;;;40.67;20.33;;;4.30;90.10;;;;;;5041749;28;20028;-67
2021/03/17 06:18:15;;;;;;;45.70;19.27;;;4.20;90.10;;;;;;5043539;28;20032;-66
2021/03/17 06:20:42;;;;;;;44.03;18.27;;;4.30;90.30;;;;;;5041987;28;20029;-67
2021/03/17 06:23:08;;;;;;;46.30;18.67;;;4.30;90.40;;;;;;5042279;28;20057;-67
2021/03/17 06:25:34;;;;;;;36.75;17.10;;;4.30;90.50;;;;;;5043183;28;20052;-67
2021/03/17 06:28:02;;;;;;;36.00;17.40;;;4.30;90.50;;;;;;5046451;28;20032;-67
2021/03/17 06:30:28;;;;;;;42.30;20.13;;;4.40;90.50;;;;;;5040986;28;20029;-68
2021/03/17 06:32:54;;;;;;;46.85;20.67;;;4.40;90.40;;;;;;5040565;28;20025;-68
2021/03/17 06:35:25;;;;;;;49.08;23.15;;;4.30;90.40;;;;;;5036817;28;20021;-68
2021/03/17 06:37:52;;;;;;;45.95;22.75;;;4.40;90.50;;;;;;5046020;28;20018;-67
2021/03/17 06:40:22;;;;;;;54.88;23.42;;;4.40;90.50;;;;;;5051359;28;20068;-70
2021/03/17 06:42:48;;;;;;;47.10;21.60;;;4.40;90.40;;;;;;5045404;28;20028;-68
2021/03/17 06:45:14;;;;;;;51.28;21.98;;;4.30;90.50;;;;;;5044390;28;20029;-68
2021/03/17 06:47:41;;;;;;;42.78;21.08;;;4.40;90.50;;;;;;5043031;28;20040;-69
2021/03/17 06:50:15;;;;;;;42.17;20.05;;;4.40;90.50;;;;;;5050826;28;20047;-69
2021/03/17 06:52:43;;;;;;;43.53;21.08;;;4.40;90.50;;;;;;5039845;28;20041;-67
2021/03/17 06:55:20;;;;;;;40.15;20.80;;;4.40;90.70;;;;;;5046527;28;20155;-68
2021/03/17 06:57:47;;;;;;;43.28;20.95;;;4.40;90.40;;;;;;5053763;28;20163;-67
2021/03/17 07:00:18;;;;;;;48.00;22.98;;;4.40;90.60;;;;;;5051355;28;20029;-66
2021/03/17 07:02:50;;;;;;;40.85;20.65;;;4.50;90.60;;;;;;5048305;28;20546;-67
2021/03/17 07:05:16;;;;;;;48.08;20.70;;;4.50;90.50;;;;;;5051384;28;20101;-67
2021/03/17 07:07:50;;;;;;;38.72;19.92;;;4.60;90.60;;;;;;5046074;28;20049;-72
2021/03/17 07:10:46;;;;;;;41.45;19.23;;;4.50;90.30;;;;;;5038302;28;20032;-74
2021/03/17 07:13:15;;;;;;;41.28;21.55;;;4.50;90.20;;;;;;5043191;28;20960;-71
2021/03/17 07:15:41;;;;;;;55.17;25.42;;;4.50;90.30;;;;;;5042812;28;20033;-67
2021/03/17 07:18:14;;;;;;;54.20;23.52;;;4.50;90.30;;;;;;5043914;28;20035;-69
2021/03/17 07:20:43;;;;;;;35.38;19.73;;;4.50;90.40;;;;;;5044981;28;20533;-67
2021/03/17 07:23:33;;;;;;;40.97;21.17;;;4.50;90.40;;;;;;5043507;28;20022;-67
2021/03/17 07:26:22;;;;;;;39.30;20.63;;;4.50;90.30;;;;;;5043080;28;20052;-67
2021/03/17 07:29:16;;;;;;;;;;;;;;;;;;;;;
2021/03/17 07:31:47;;;;;;;36.05;18.63;;;4.50;90.30;;;;;;5044177;28;20119;-71
2021/03/17 07:34:25;;;;;;;50.20;21.50;;;4.40;90.30;;;;;;5045529;28;20025;-65
2021/03/17 07:36:55;;;;;;;47.58;23.17;;;4.40;90.40;;;;;;5053500;28;20376;-65
2021/03/17 07:39:37;;;;;;;38.28;18.45;;;4.50;90.50;;;;;;5055302;28;20025;-65
2021/03/17 07:42:08;;;;;;;39.13;19.30;;;4.50;90.40;;;;;;5048490;28;20117;-66
2021/03/17 07:44:36;;;;;;;40.15;19.17;;;4.50;90.50;;;;;;5044482;28;20053;-73
2021/03/17 07:47:06;;;;;;;37.30;19.13;;;4.50;90.50;;;;;;5038977;28;20471;-70
2021/03/17 07:49:34;;;;;;;43.75;18.65;;;4.50;90.50;;;;;;5041278;28;20033;-70
2021/03/17 07:52:01;;;;;;;47.05;19.20;;;4.60;90.40;;;;;;5050272;28;20079;-71
2021/03/17 07:54:33;;;;;;;42.00;19.23;;;4.60;90.50;;;;;;5050600;28;20025;-69
2021/03/17 07:57:01;;;;;;;36.70;17.08;;;4.60;90.40;;;;;;5042706;28;20041;-67
2021/03/17 07:59:27;;;;;;;35.50;16.77;;;4.60;90.30;;;;;;5038380;28;20451;-67
2021/03/17 08:01:54;;;;;;;35.40;18.30;;;4.60;90.30;;;;;;5041704;28;20108;-65
2021/03/17 08:04:29;;;;;;;31.38;16.98;;;4.60;90.30;;;;;;5039167;28;20079;-66
2021/03/17 08:07:03;;;;;;;35.78;16.35;;;4.60;90.20;;;;;;5042381;28;20050;-67
2021/03/17 08:09:29;;;;;;;37.08;15.77;;;4.60;90.10;;;;;;5050594;28;20025;-67
2021/03/17 08:11:58;;;;;;;39.40;16.45;;;4.60;90.20;;;;;;5035359;28;20060;-67
2021/03/17 08:14:25;;;;;;;31.67;17.27;;;4.60;90.30;;;;;;5038625;28;20514;-69
2021/03/17 08:16:52;;;;;;;40.00;19.33;;;4.60;90.30;;;;;;5047870;28;20052;-73
2021/03/17 08:19:20;;;;;;;48.53;20.35;;;4.60;90.30;;;;;;5048696;28;20037;-65
2021/03/17 08:21:56;;;;;;;46.53;19.50;;;4.60;90.30;;;;;;5036846;28;20099;-65
2021/03/17 08:24:36;;;;;;;37.00;18.50;;;4.60;90.30;;;;;;5041579;28;20099;-65
2021/03/17 08:27:11;;;;;;;50.53;18.73;;;4.60;90.30;;;;;;5048738;28;20029;-65
2021/03/17 08:29:52;;;;;;;32.47;15.87;;;4.60;90.30;;;;;;5038000;28;20040;-65
2021/03/17 08:32:19;;;;;;;28.42;14.73;;;4.70;90.30;;;;;;5034940;28;20033;-65
2021/03/17 08:34:54;;;;;;;36.88;17.50;;;4.70;90.30;;;;;;5050228;28;20368;-65
2021/03/17 08:37:20;;;;;;;42.08;19.83;;;4.70;90.40;;;;;;5037162;28;20025;-65
2021/03/17 08:39:47;;;;;;;38.30;17.50;;;4.80;90.30;;;;;;5049772;28;20035;-66
2021/03/17 08:42:30;;;;;;;34.88;15.75;;;4.80;90.30;;;;;;5042866;28;20028;-65
2021/03/17 08:44:59;;;;;;;33.83;15.60;;;4.80;90.20;;;;;;5042815;28;20025;-66
2021/03/17 08:47:41;;;;;;;32.05;17.70;;;4.90;90.30;;;;;;5048681;28;20499;-65
2021/03/17 08:50:21;;;;;;;29.15;16.17;;;4.90;90.20;;;;;;5038600;28;20061;-65
2021/03/17 08:52:51;;;;;;;30.75;17.23;;;4.90;90.10;;;;;;5043031;28;20060;-66
2021/03/17 08:55:20;;;;;;;27.58;15.80;;;4.90;90.10;;;;;;5042870;28;20025;-72
2021/03/17 08:57:52;;;;;;;29.52;16.73;;;4.90;90.20;;;;;;5047510;28;20096;-65
2021/03/17 09:00:42;;;;;;;30.33;17.55;;;5.00;90.20;;;;;;5037295;28;20033;-65
2021/03/17 09:03:09;;;;;;;27.10;16.20;;;5.00;90.20;;;;;;5044845;28;20037;-65
2021/03/17 09:05:35;;;;;;;25.83;14.80;;;5.10;90.20;;;;;;5042094;28;20035;-66
2021/03/17 09:08:08;;;;;;;25.67;14.73;;;5.10;90.20;;;;;;5040046;28;20371;-65
2021/03/17 09:10:43;;;;;;;23.13;13.38;;;5.20;90.20;;;;;;5052165;28;20124;-65
2021/03/17 09:13:08;;;;;;;28.13;15.10;;;5.20;90.10;;;;;;5037306;28;20029;-65
2021/03/17 09:15:49;;;;;;;25.92;15.40;;;5.20;89.80;;;;;;5052249;28;20099;-65
2021/03/17 09:18:19;;;;;;;22.77;12.45;;;5.20;89.50;;;;;;5039962;28;20064;-65
2021/03/17 09:20:49;;;;;;;32.17;14.57;;;5.20;88.90;;;;;;5053788;28;20498;-65
2021/03/17 09:23:22;;;;;;;21.25;12.68;;;5.10;88.80;;;;;;5053038;28;20067;-66
2021/03/17 09:25:54;;;;;;;25.27;13.85;;;5.00;88.80;;;;;;5052126;28;20035;-65
2021/03/17 09:28:35;;;;;;;26.67;15.07;;;5.00;88.90;;;;;;5053361;28;20029;-66
2021/03/17 09:31:09;;;;;;;29.52;15.75;;;4.90;89.00;;;;;;5052970;28;20158;-66
2021/03/17 09:33:43;;;;;;;25.80;16.38;;;5.00;90.00;;;;;;5039676;28;20654;-66
2021/03/17 09:36:28;;;;;;;28.92;17.20;;;5.00;90.00;;;;;;5053465;28;20063;-66
2021/03/17 09:38:56;;;;;;;28.40;16.85;;;5.00;90.10;;;;;;5041343;28;20021;-65
2021/03/17 09:41:27;;;;;;;29.92;17.15;;;5.10;90.00;;;;;;5051589;28;20078;-65
2021/03/17 09:44:13;;;;;;;27.45;16.55;;;5.00;90.00;;;;;;5053338;28;20025;-65
2021/03/17 09:46:46;;;;;;;41.30;25.00;;;5.10;90.00;;;;;;5051262;28;20029;-66
2021/03/17 09:49:14;;;;;;;42.17;22.70;;;5.10;89.90;;;;;;5052844;28;20267;-65
2021/03/17 09:51:54;;;;;;;31.25;18.75;;;5.10;90.00;;;;;;5052608;28;20063;-67
2021/03/17 09:54:29;;;;;;;35.35;21.02;;;5.10;90.20;;;;;;5051647;28;20024;-67
2021/03/17 09:56:59;;;;;;;32.60;17.40;;;5.10;90.10;;;;;;5053220;28;20043;-66
2021/03/17 09:59:40;;;;;;;35.92;19.25;;;5.20;90.20;;;;;;5051434;28;20447;-73
2021/03/17 10:02:18;;;;;;;39.72;20.10;;;5.20;90.30;;;;;;5035345;28;20024;-70
2021/03/17 10:04:46;;;;;;;35.88;19.38;;;5.20;90.20;;;;;;5033717;28;20029;-69
2021/03/17 10:07:16;;;;;;;28.23;17.02;;;5.30;90.10;;;;;;5037845;28;20088;-70
2021/03/17 10:09:43;;;;;;;21.75;14.85;;;5.30;90.10;;;;;;5049933;28;20108;-69
2021/03/17 10:12:12;;;;;;;27.60;16.20;;;5.30;89.80;;;;;;5051200;28;20463;-70
2021/03/17 10:14:43;;;;;;;26.67;15.45;;;5.30;90.20;;;;;;5049290;28;20029;-70
2021/03/17 10:17:09;;;;;;;20.20;13.15;;;5.30;90.00;;;;;;5048300;28;20025;-71
2021/03/17 10:19:36;;;;;;;26.08;16.58;;;5.30;90.00;;;;;;5041241;28;20092;-73
2021/03/17 10:22:03;;;;;;;25.30;14.85;;;5.30;90.00;;;;;;5047623;28;20021;-71
2021/03/17 10:24:42;;;;;;;25.80;14.23;;;5.30;90.10;;;;;;5042883;28;20040;-71
2021/03/17 10:27:10;;;;;;;24.85;14.95;;;5.40;90.10;;;;;;5044224;28;20434;-71
2021/03/17 10:29:38;;;;;;;27.45;14.43;;;5.40;90.20;;;;;;5041235;28;20116;-72
2021/03/17 10:32:14;;;;;;;23.60;15.27;;;5.40;90.10;;;;;;5042454;28;20115;-71
2021/03/17 10:34:40;;;;;;;21.25;14.48;;;5.40;89.90;;;;;;5038863;28;20026;-69
2021/03/17 10:37:14;;;;;;;23.95;12.95;;;5.40;89.70;;;;;;5039083;28;20485;-70
2021/03/17 10:39:40;;;;;;;25.92;13.13;;;5.30;89.40;;;;;;5036100;28;20484;-71
2021/03/17 10:42:24;;;;;;;20.30;13.25;;;5.30;89.50;;;;;;5036354;28;20025;-69
2021/03/17 10:45:05;;;;;;;22.90;12.70;;;5.30;89.80;;;;;;5034911;28;20026;-69
2021/03/17 10:47:31;;;;;;;20.70;12.57;;;5.30;89.90;;;;;;5033739;28;20053;-69
2021/03/17 10:49:57;;;;;;;26.40;13.15;;;5.30;89.80;;;;;;5037726;28;20055;-70
2021/03/17 10:52:45;;;;;;;22.55;13.40;;;5.30;89.80;;;;;;5030958;28;20044;-69
2021/03/17 10:55:20;;;;;;;20.85;14.00;;;5.30;89.90;;;;;;5046100;28;20108;-69
2021/03/17 10:57:46;;;;;;;24.70;15.43;;;5.30;89.90;;;;;;5051182;28;20321;-70
2021/03/17 11:00:30;;;;;;;26.48;15.00;;;5.40;90.00;;;;;;5047830;28;20459;-70
2021/03/17 11:02:56;;;;;;;21.10;13.63;;;5.30;89.70;;;;;;5048803;28;20029;-69
2021/03/17 11:05:26;;;;;;;22.50;14.05;;;5.30;89.90;;;;;;5041713;28;20030;-69
2021/03/17 11:08:01;;;;;;;23.77;14.80;;;5.40;89.90;;;;;;5050417;28;20021;-68
2021/03/17 11:10:47;;;;;;;25.63;14.90;;;5.40;90.00;;;;;;5051180;28;20049;-69
2021/03/17 11:13:12;;;;;;;;;;;5.40;89.90;;;;;;5039056;28;20453;-68
2021/03/17 11:15:47;;;;;;;26.45;15.20;;;5.50;89.60;;;;;;5051726;28;20007;-70
2021/03/17 11:18:44;;;;;;;24.55;15.65;;;5.50;89.90;;;;;;5051876;28;20031;-68
2021/03/17 11:21:32;;;;;;;31.65;17.08;;;5.40;89.70;;;;;;5051467;28;20084;-68
2021/03/17 11:24:00;;;;;;;32.40;19.58;;;5.50;89.80;;;;;;5040372;28;20532;-69
2021/03/17 11:26:39;;;;;;;31.17;17.23;;;5.50;90.00;;;;;;5043508;28;20079;-68
2021/03/17 11:29:14;;;;;;;31.05;17.08;;;5.50;90.00;;;;;;5042650;28;20031;-68
2021/03/17 11:31:40;;;;;;;28.42;16.20;;;5.60;89.90;;;;;;5049084;28;20048;-68
2021/03/17 11:34:08;;;;;;;27.65;14.70;;;5.60;90.00;;;;;;5046094;28;20053;-68
2021/03/17 11:36:34;;;;;;;28.95;15.13;;;5.70;90.00;;;;;;5052964;28;20025;-68
2021/03/17 11:39:05;;;;;;;26.05;16.42;;;5.80;89.90;;;;;;5047894;28;20365;-68
2021/03/17 11:41:31;;;;;;;35.03;15.45;;;5.70;89.60;;;;;;5058364;28;20028;-68
2021/03/17 11:43:57;;;;;;;27.25;13.07;;;5.80;89.70;;;;;;5044740;28;20050;-67
2021/03/17 11:46:23;;;;;;;18.95;11.23;;;5.80;89.70;;;;;;5046747;28;20063;-68
2021/03/17 11:48:49;;;;;;;25.75;12.93;;;5.80;89.10;;;;;;5039923;28;20467;-68
2021/03/17 11:51:16;;;;;;;17.23;10.15;;;5.80;89.20;;;;;;5054592;28;20082;-69
2021/03/17 11:53:42;;;;;;;23.13;11.05;;;5.80;89.00;;;;;;5039276;28;20029;-68
2021/03/17 11:56:08;;;;;;;28.10;14.75;;;5.80;89.20;;;;;;5047890;28;20025;-68
2021/03/17 11:58:36;;;;;;;37.90;15.90;;;5.80;89.80;;;;;;5050996;28;20100;-68
2021/03/17 12:01:02;;;;;;;34.92;17.52;;;5.80;89.60;;;;;;5043163;28;20081;-68
2021/03/17 12:03:29;;;;;;;31.13;17.65;;;5.80;89.70;;;;;;5043260;28;20523;-69
2021/03/17 12:05:54;;;;;;;32.38;18.95;;;5.80;89.90;;;;;;5041896;28;20045;-70
2021/03/17 12:08:20;;;;;;;38.15;19.80;;;5.90;90.00;;;;;;5040152;28;20043;-69
2021/03/17 12:10:49;;;;;;;27.95;15.63;;;5.90;89.60;;;;;;5041930;28;20490;-69
2021/03/17 12:13:15;;;;;;;32.15;16.30;;;5.90;89.70;;;;;;5044532;28;20036;-69
2021/03/17 12:15:41;;;;;;;27.98;14.50;;;6.00;89.50;;;;;;5040859;28;20029;-69
2021/03/17 12:18:07;;;;;;;37.92;15.75;;;5.90;89.30;;;;;;5040801;28;20029;-69
2021/03/17 12:20:33;;;;;;;32.10;14.32;;;5.90;89.20;;;;;;5042118;28;20057;-69
2021/03/17 12:23:00;;;;;;;33.25;15.00;;;5.80;89.10;;;;;;5044367;28;20103;-69
2021/03/17 12:25:26;;;;;;;29.67;14.40;;;5.80;89.20;;;;;;5037287;28;20033;-69
2021/03/17 12:27:52;;;;;;;23.80;12.73;;;5.80;89.40;;;;;;5043049;28;20362;-69
2021/03/17 12:30:20;;;;;;;28.75;15.13;;;5.80;90.10;;;;;;5042971;28;20032;-69
2021/03/17 12:32:53;;;;;;;34.75;17.58;;;5.80;89.70;;;;;;5038611;28;20467;-69
2021/03/17 12:35:21;;;;;;;22.25;13.48;;;5.80;89.80;;;;;;5035054;28;20126;-70
2021/03/17 12:37:48;;;;;;;23.85;14.15;;;5.80;89.60;;;;;;5040337;28;20021;-68
2021/03/17 12:40:16;;;;;;;28.38;14.07;;;5.80;89.50;;;;;;5040955;28;20084;-70
2021/03/17 12:42:43;;;;;;;26.92;17.60;;;5.70;89.70;;;;;;5039475;28;20021;-68
2021/03/17 12:45:12;;;;;;;16.98;10.30;;;5.70;89.70;;;;;;5040951;28;20019;-69
2021/03/17 12:47:38;;;;;;;17.65;11.68;;;5.70;89.40;;;;;;5039512;28;20056;-69
2021/03/17 12:50:08;;;;;;;19.35;13.18;;;5.70;89.20;;;;;;5039586;28;20037;-72
2021/03/17 12:52:33;;;;;;;18.73;11.10;;;5.60;89.20;;;;;;5037523;28;20029;-72